createdAt,value
2022-08-02T00:03:27.241Z,96534.00
2022-08-02T00:07:31.807Z,96526.00
2022-08-02T00:11:34.978Z,96527.00
2022-08-02T00:16:12.092Z,96512.00
2022-08-02T00:20:20.209Z,96517.00
2022-08-02T00:24:58.849Z,96517.00
2022-08-02T00:29:02.052Z,96522.00
2022-08-02T00:33:05.849Z,96516.00
2022-08-02T00:37:08.932Z,96511.00
2022-08-02T00:41:45.725Z,96513.00
2022-08-02T00:46:02.755Z,96515.00
2022-08-02T00:50:07.553Z,96515.00
2022-08-02T00:54:41.553Z,96520.00
2022-08-02T00:58:44.731Z,96517.00
2022-08-02T01:03:20.288Z,96520.00
2022-08-02T01:07:23.449Z,96511.00
2022-08-02T01:12:02.608Z,96514.00
2022-08-02T01:16:13.127Z,96506.00
2022-08-02T01:20:50.469Z,96500.00
2022-08-02T01:25:09.122Z,96505.00
2022-08-02T01:29:18.362Z,96488.00
2022-08-02T01:33:24.484Z,96499.00
2022-08-02T01:38:00.087Z,96505.00
2022-08-02T01:42:04.520Z,96497.00
2022-08-02T01:46:40.810Z,96495.00
2022-08-02T01:50:45.399Z,96489.00
2022-08-02T01:55:21.499Z,96490.00
2022-08-02T01:59:39.283Z,96485.00
2022-08-02T02:03:45.262Z,96497.00
2022-08-02T02:07:51.573Z,96495.00
2022-08-02T02:12:25.864Z,96500.00
2022-08-02T02:16:30.541Z,96499.00
2022-08-02T02:21:06.054Z,96500.00
2022-08-02T02:25:11.270Z,96495.00
2022-08-02T02:29:15.593Z,96495.00
2022-08-02T02:33:20.111Z,96496.00
2022-08-02T02:37:54.111Z,96515.00
2022-08-02T02:42:33.773Z,96520.00
2022-08-02T02:46:38.202Z,96527.00
2022-08-02T02:50:43.514Z,96520.00
2022-08-02T02:55:18.730Z,96517.00
2022-08-02T02:59:23.254Z,96527.00
2022-08-02T03:03:27.362Z,96527.00
2022-08-02T03:07:30.660Z,96542.00
2022-08-02T03:11:34.898Z,96535.00
2022-08-02T03:15:40.998Z,96540.00
2022-08-02T03:19:44.179Z,96538.00
2022-08-02T03:23:47.562Z,96540.00
2022-08-02T03:27:50.819Z,96539.00
2022-08-02T03:31:55.873Z,96545.00
2022-08-02T03:36:02.961Z,96549.00
2022-08-02T03:40:09.454Z,96560.00
2022-08-02T03:44:13.874Z,96557.00
2022-08-02T03:48:34.122Z,96553.00
2022-08-02T03:52:42.945Z,96552.00
2022-08-02T03:56:47.061Z,96551.00
2022-08-02T04:00:50.366Z,96552.00
2022-08-02T04:04:55.543Z,96547.00
2022-08-02T04:08:58.913Z,96544.00
2022-08-02T04:13:02.212Z,96551.00
2022-08-02T04:17:09.619Z,96555.00
2022-08-02T04:21:18.697Z,96542.00
2022-08-02T04:25:34.201Z,96545.00
2022-08-02T04:29:41.746Z,96547.00
2022-08-02T04:33:48.622Z,96548.00
2022-08-02T04:38:08.188Z,96542.00
2022-08-02T04:42:22.976Z,96554.00
2022-08-02T04:46:26.189Z,96576.00
2022-08-02T04:50:29.383Z,96575.00
2022-08-02T04:54:34.167Z,96586.00
2022-08-02T04:58:40.415Z,96586.00
2022-08-02T05:02:44.093Z,96591.00
2022-08-02T05:06:47.231Z,96588.00
2022-08-02T05:10:51.869Z,96590.00
2022-08-02T05:14:55.135Z,96595.00
2022-08-02T05:18:58.311Z,96597.00
2022-08-02T05:23:01.559Z,96598.00
2022-08-02T05:27:17.111Z,96592.00
2022-08-02T05:31:25.103Z,96588.00
2022-08-02T05:35:28.412Z,96603.00
2022-08-02T05:39:31.865Z,96595.00
2022-08-02T05:43:36.603Z,96594.00
2022-08-02T05:47:40.333Z,96598.00
2022-08-02T05:51:51.555Z,96595.00
2022-08-02T05:56:08.348Z,96595.00
2022-08-02T06:00:15.019Z,96593.00
2022-08-02T06:04:26.343Z,96600.00
2022-08-02T06:08:33.852Z,96596.00
2022-08-02T06:12:44.314Z,96603.00
2022-08-02T06:16:50.898Z,96604.00
2022-08-02T06:20:58.027Z,96608.00
2022-08-02T06:25:03.182Z,96623.00
2022-08-02T06:29:06.822Z,96621.00
2022-08-02T06:33:12.638Z,96614.00
2022-08-02T06:37:24.885Z,96620.00
2022-08-02T06:41:32.551Z,96615.00
2022-08-02T06:45:36.589Z,96626.00
2022-08-02T06:49:51.989Z,96618.00
2022-08-02T06:53:57.021Z,96613.00
2022-08-02T06:58:00.409Z,96617.00
2022-08-02T07:02:03.726Z,96615.00
2022-08-02T07:06:09.970Z,96616.00
2022-08-02T07:10:14.400Z,96621.00
2022-08-02T07:14:17.610Z,96621.00
2022-08-02T07:18:20.750Z,96615.00
2022-08-02T07:22:27.294Z,96627.00
2022-08-02T07:26:30.699Z,96624.00
2022-08-02T07:30:34.327Z,96628.00
2022-08-02T07:34:37.508Z,96629.00
2022-08-02T07:38:42.040Z,96632.00
2022-08-02T07:42:45.399Z,96622.00
2022-08-02T07:46:48.782Z,96629.00
2022-08-02T07:50:52.069Z,96626.00
2022-08-02T07:54:56.640Z,96616.00
2022-08-02T07:58:59.737Z,96611.00
2022-08-02T08:03:03.089Z,96609.00
2022-08-02T08:07:07.727Z,96607.00
2022-08-02T08:11:12.349Z,96605.00
2022-08-02T08:15:15.584Z,96598.00
2022-08-02T08:19:18.756Z,96603.00
2022-08-02T08:23:21.842Z,96600.00
2022-08-02T08:27:26.531Z,96605.00
2022-08-02T08:31:29.741Z,96603.00
2022-08-02T08:35:32.959Z,96614.00
2022-08-02T08:39:36.284Z,96608.00
2022-08-02T08:44:00.951Z,96613.00
2022-08-02T08:48:13.883Z,96609.00
2022-08-02T08:52:18.101Z,96620.00
2022-08-02T08:56:22.144Z,96621.00
2022-08-02T09:00:27.369Z,96622.00
2022-08-02T09:04:31.420Z,96619.00
2022-08-02T09:08:34.689Z,96621.00
2022-08-02T09:12:37.819Z,96627.00
2022-08-02T09:16:44.102Z,96627.00
2022-08-02T09:20:57.498Z,96620.00
2022-08-02T09:25:01.771Z,96620.00
2022-08-02T09:29:05.128Z,96619.00
2022-08-02T09:33:10.153Z,96624.00
2022-08-02T09:37:23.735Z,96626.00
2022-08-02T09:41:28.697Z,96628.00
2022-08-02T09:45:34.551Z,96625.00
2022-08-02T09:49:52.367Z,96620.00
2022-08-02T09:54:08.064Z,96624.00
2022-08-02T09:58:21.382Z,96626.00
2022-08-02T10:02:24.731Z,96625.00
2022-08-02T10:06:30.006Z,96619.00
2022-08-02T10:10:33.261Z,96622.00
2022-08-02T10:14:36.714Z,96620.00
2022-08-02T10:18:41.467Z,96622.00
2022-08-02T10:22:46.660Z,96625.00
2022-08-02T10:26:50.700Z,96632.00
2022-08-02T10:30:56.559Z,96618.00
2022-08-02T10:35:21.725Z,96606.00
2022-08-02T10:39:27.951Z,96607.00
2022-08-02T10:43:46.571Z,96597.00
2022-08-02T10:48:06.137Z,96580.00
2022-08-02T10:52:11.036Z,96580.00
2022-08-02T10:56:18.460Z,96575.00
2022-08-02T11:00:28.646Z,96577.00
2022-08-02T11:04:33.750Z,96576.00
2022-08-02T11:08:37.284Z,96578.00
2022-08-02T11:13:00.421Z,96574.00
2022-08-02T11:17:12.121Z,96565.00
2022-08-02T11:21:26.216Z,96580.00
2022-08-02T11:26:01.370Z,96579.00
2022-08-02T11:30:00.681Z,96577.00
2022-08-02T11:34:09.530Z,96581.00
2022-08-02T11:38:18.665Z,96593.00
2022-08-02T11:42:22.185Z,96595.00
2022-08-02T11:46:26.966Z,96585.00
2022-08-02T11:50:30.707Z,96590.00
2022-08-02T11:54:36.322Z,96574.00
2022-08-02T11:58:41.859Z,96570.00
2022-08-02T12:02:49.299Z,96578.00
2022-08-02T12:06:57.655Z,96567.00
2022-08-02T12:11:02.973Z,96559.00
2022-08-02T12:15:06.802Z,96560.00
2022-08-02T12:19:19.654Z,96554.00
2022-08-02T12:23:23.046Z,96553.00
2022-08-02T12:27:30.868Z,96549.00
2022-08-02T12:31:56.197Z,96542.00
2022-08-02T12:36:02.558Z,96544.00
2022-08-02T12:40:25.469Z,96544.00
2022-08-02T12:44:29.459Z,96549.00
2022-08-02T12:48:38.409Z,96532.00
2022-08-02T12:52:46.914Z,96535.00
2022-08-02T12:56:50.701Z,96529.00
2022-08-02T13:00:55.206Z,96519.00
2022-08-02T13:05:00.831Z,96525.00
2022-08-02T13:09:13.766Z,96519.00
2022-08-02T13:13:16.875Z,96524.00
2022-08-02T13:17:20.439Z,96518.00
2022-08-02T13:21:41.023Z,96519.00
2022-08-02T13:25:48.340Z,96515.00
2022-08-02T13:29:57.742Z,96515.00
2022-08-02T13:34:02.447Z,96512.00
2022-08-02T13:38:06.901Z,96500.00
2022-08-02T13:42:16.707Z,96507.00
2022-08-02T13:46:28.682Z,96495.00
2022-08-02T13:50:32.815Z,96501.00
2022-08-02T13:54:35.971Z,96499.00
2022-08-02T13:58:40.592Z,96495.00
2022-08-02T14:02:43.829Z,96496.00
2022-08-02T14:06:47.205Z,96496.00
2022-08-02T14:10:51.618Z,96491.00
2022-08-02T14:14:56.303Z,96487.00
2022-08-02T14:18:59.590Z,96487.00
2022-08-02T14:23:02.800Z,96477.00
2022-08-02T14:27:06.058Z,96474.00
2022-08-02T14:31:10.633Z,96471.00
2022-08-02T14:35:14.885Z,96474.00
2022-08-02T14:39:18.533Z,96473.00
2022-08-02T14:43:35.384Z,96474.00
2022-08-02T14:47:40.226Z,96479.00
2022-08-02T14:51:43.514Z,96474.00
2022-08-02T14:55:46.649Z,96470.00
2022-08-02T14:59:49.875Z,96475.00
2022-08-02T15:03:57.035Z,96463.00
2022-08-02T15:08:00.178Z,96465.00
2022-08-02T15:12:05.596Z,96468.00
2022-08-02T15:16:10.587Z,96468.00
2022-08-02T15:20:25.077Z,96455.00
2022-08-02T15:24:29.252Z,96465.00
2022-08-02T15:28:32.526Z,96457.00
2022-08-02T15:32:35.733Z,96452.00
2022-08-02T15:36:40.384Z,96458.00
2022-08-02T15:40:44.031Z,96449.00
2022-08-02T15:44:47.283Z,96458.00
2022-08-02T15:48:50.477Z,96453.00
2022-08-02T15:52:55.244Z,96462.00
2022-08-02T15:56:58.365Z,96461.00
2022-08-02T16:01:01.617Z,96469.00
2022-08-02T16:05:13.708Z,96462.00
2022-08-02T16:09:18.943Z,96463.00
2022-08-02T16:13:41.322Z,96461.00
2022-08-02T16:17:56.536Z,96466.00
2022-08-02T16:21:59.711Z,96463.00
2022-08-02T16:26:04.347Z,96460.00
2022-08-02T16:30:08.778Z,96454.00
2022-08-02T16:34:14.492Z,96453.00
2022-08-02T16:38:17.696Z,96454.00
2022-08-02T16:42:26.003Z,96445.00
2022-08-02T16:46:29.447Z,96451.00
2022-08-02T16:50:33.113Z,96443.00
2022-08-02T16:54:37.415Z,96441.00
2022-08-02T16:58:44.954Z,96437.00
2022-08-02T17:02:50.805Z,96444.00
2022-08-02T17:06:54.907Z,96444.00
2022-08-02T17:11:03.462Z,96444.00
2022-08-02T17:16:01.361Z,96442.00
2022-08-02T17:19:35.331Z,96436.00
2022-08-02T17:24:04.047Z,96443.00
2022-08-02T17:28:05.639Z,96445.00
2022-08-02T17:32:14.919Z,96442.00
2022-08-02T17:36:21.957Z,96448.00
2022-08-02T17:40:25.846Z,96448.00
2022-08-02T17:44:36.895Z,96448.00
2022-08-02T17:48:59.900Z,96449.00
2022-08-02T17:53:03.774Z,96448.00
2022-08-02T17:57:07.648Z,96453.00
2022-08-02T18:01:23.660Z,96448.00
2022-08-02T18:05:39.250Z,96452.00
2022-08-02T18:09:45.799Z,96455.00
2022-08-02T18:13:53.411Z,96449.00
2022-08-02T18:17:57.233Z,96453.00
2022-08-02T18:22:03.554Z,96449.00
2022-08-02T18:26:07.127Z,96441.00
2022-08-02T18:30:12.487Z,96451.00
2022-08-02T18:34:16.024Z,96456.00
2022-08-02T18:38:21.117Z,96452.00
2022-08-02T18:42:24.334Z,96455.00
2022-08-02T18:46:30.112Z,96448.00
2022-08-02T18:50:33.870Z,96459.00
2022-08-02T18:54:40.039Z,96464.00
2022-08-02T18:58:43.622Z,96465.00
2022-08-02T19:02:51.533Z,96458.00
2022-08-02T19:06:55.354Z,96472.00
2022-08-02T19:11:02.393Z,96470.00
2022-08-02T19:15:11.195Z,96473.00
2022-08-02T19:19:19.931Z,96478.00
2022-08-02T19:23:23.200Z,96475.00
2022-08-02T19:27:32.492Z,96474.00
2022-08-02T19:31:59.954Z,96473.00
2022-08-02T19:36:01.477Z,96478.00
2022-08-02T19:40:08.051Z,96490.00
2022-08-02T19:44:25.615Z,96487.00
2022-08-02T19:48:32.463Z,96489.00
2022-08-02T19:52:36.153Z,96492.00
2022-08-02T19:56:45.246Z,96495.00
2022-08-02T20:00:49.919Z,96496.00
2022-08-02T20:04:56.463Z,96502.00
2022-08-02T20:09:02.372Z,96504.00
2022-08-02T20:13:05.659Z,96507.00
2022-08-02T20:17:11.738Z,96504.00
2022-08-02T20:21:34.133Z,96496.00
2022-08-02T20:25:38.216Z,96497.00
2022-08-02T20:29:49.863Z,96494.00
2022-08-02T20:33:56.023Z,96490.00
2022-08-02T20:38:04.785Z,96490.00
2022-08-02T20:42:22.999Z,96494.00
2022-08-02T20:46:27.563Z,96486.00
2022-08-02T20:50:53.246Z,96483.00
2022-08-02T20:54:56.528Z,96491.00
2022-08-02T20:59:04.118Z,96490.00
2022-08-02T21:03:19.748Z,96485.00
2022-08-02T21:07:24.470Z,96491.00
2022-08-02T21:11:33.895Z,96494.00
2022-08-02T21:15:40.477Z,96489.00
2022-08-02T21:19:44.245Z,96487.00
2022-08-02T21:28:17.494Z,96486.00
2022-08-02T21:32:21.001Z,96486.00
2022-08-02T21:36:31.717Z,96485.00
2022-08-02T21:40:50.215Z,96489.00
2022-08-02T21:44:54.860Z,96479.00
2022-08-02T21:48:58.009Z,96484.00
2022-08-02T21:53:02.121Z,96477.00
2022-08-02T21:57:06.798Z,96479.00
2022-08-02T22:01:10.283Z,96488.00
2022-08-02T22:05:14.349Z,96479.00
2022-08-02T22:09:44.350Z,96480.00
2022-08-02T22:13:47.275Z,96483.00
2022-08-02T22:17:59.881Z,96487.00
2022-08-02T22:22:03.472Z,96496.00
2022-08-02T22:26:06.606Z,96498.00
2022-08-02T22:30:17.252Z,96499.00
2022-08-02T22:34:37.202Z,96501.00
2022-08-02T22:38:44.991Z,96502.00
2022-08-02T22:42:48.157Z,96499.00
2022-08-02T22:46:52.664Z,96504.00
2022-08-02T22:50:55.760Z,96505.00
2022-08-02T22:54:58.906Z,96501.00
2022-08-02T23:03:23.127Z,96508.00
2022-08-02T23:07:26.376Z,96505.00
2022-08-02T23:11:29.505Z,96505.00
2022-08-02T23:15:54.762Z,96509.00
2022-08-02T23:19:58.539Z,96502.00
2022-08-02T23:24:02.005Z,96492.00
2022-08-02T23:28:05.337Z,96500.00
2022-08-02T23:32:08.648Z,96498.00
2022-08-02T23:36:13.184Z,96501.00
2022-08-02T23:40:16.393Z,96508.00
2022-08-02T23:44:39.546Z,96504.00
2022-08-02T23:48:42.866Z,96503.00
2022-08-02T23:52:47.368Z,96505.00
2022-08-02T23:56:50.622Z,96501.00
